sensor_id;sensor_type;location;lat;lon;timestamp;temperature;humidity
34698;DHT22;61391;50.922;6.928;2023-05-10T00:04:21;14.90;99.90
34698;DHT22;61391;50.922;6.928;2023-05-10T00:10:09;14.80;99.90
34698;DHT22;61391;50.922;6.928;2023-05-10T00:12:35;14.90;99.90
34698;DHT22;61391;50.922;6.928;2023-05-10T00:15:02;15.00;99.90
34698;DHT22;61391;50.922;6.928;2023-05-10T00:17:28;14.80;99.90
34698;DHT22;61391;50.922;6.928;2023-05-10T00:19:54;14.70;99.90
34698;DHT22;61391;50.922;6.928;2023-05-10T00:22:22;14.70;99.90
34698;DHT22;61391;50.922;6.928;2023-05-10T00:24:49;14.80;99.90
34698;DHT22;61391;50.922;6.928;2023-05-10T00:30:37;14.80;99.90
34698;DHT22;61391;50.922;6.928;2023-05-10T00:33:04;14.80;99.90
34698;DHT22;61391;50.922;6.928;2023-05-10T00:35:31;14.80;99.90
34698;DHT22;61391;50.922;6.928;2023-05-10T00:37:56;14.80;99.90
34698;DHT22;61391;50.922;6.928;2023-05-10T00:40:25;14.60;99.90
34698;DHT22;61391;50.922;6.928;2023-05-10T00:42:51;14.50;99.90
34698;DHT22;61391;50.922;6.928;2023-05-10T00:45:21;14.60;99.90
34698;DHT22;61391;50.922;6.928;2023-05-10T00:47:51;14.70;99.90
34698;DHT22;61391;50.922;6.928;2023-05-10T00:53:44;14.70;99.90
34698;DHT22;61391;50.922;6.928;2023-05-10T00:56:10;14.70;99.90
34698;DHT22;61391;50.922;6.928;2023-05-10T00:58:39;14.70;99.90
34698;DHT22;61391;50.922;6.928;2023-05-10T01:01:06;14.70;99.90
34698;DHT22;61391;50.922;6.928;2023-05-10T01:03:34;14.60;99.90
34698;DHT22;61391;50.922;6.928;2023-05-10T01:09:22;14.70;99.90
34698;DHT22;61391;50.922;6.928;2023-05-10T01:11:48;14.80;99.90
34698;DHT22;61391;50.922;6.928;2023-05-10T01:17:39;14.70;99.90
34698;DHT22;61391;50.922;6.928;2023-05-10T01:20:07;14.80;99.90
34698;DHT22;61391;50.922;6.928;2023-05-10T01:23:19;14.70;99.90
34698;DHT22;61391;50.922;6.928;2023-05-10T01:26:26;14.70;99.90
34698;DHT22;61391;50.922;6.928;2023-05-10T01:44:39;14.80;99.90
34698;DHT22;61391;50.922;6.928;2023-05-10T01:47:53;14.90;99.90
34698;DHT22;61391;50.922;6.928;2023-05-10T01:50:02;14.80;99.90
34698;DHT22;61391;50.922;6.928;2023-05-10T01:52:36;14.80;99.90
34698;DHT22;61391;50.922;6.928;2023-05-10T01:55:13;14.70;99.90
34698;DHT22;61391;50.922;6.928;2023-05-10T02:01:11;14.70;99.90
34698;DHT22;61391;50.922;6.928;2023-05-10T02:03:38;14.60;99.90
34698;DHT22;61391;50.922;6.928;2023-05-10T02:09:28;14.70;99.90
34698;DHT22;61391;50.922;6.928;2023-05-10T02:15:32;14.80;99.90
34698;DHT22;61391;50.922;6.928;2023-05-10T02:18:00;14.90;99.90
34698;DHT22;61391;50.922;6.928;2023-05-10T02:20:28;14.90;99.90
34698;DHT22;61391;50.922;6.928;2023-05-10T02:22:56;14.80;99.90
34698;DHT22;61391;50.922;6.928;2023-05-10T02:28:44;14.80;99.90
34698;DHT22;61391;50.922;6.928;2023-05-10T02:31:11;15.00;99.90
34698;DHT22;61391;50.922;6.928;2023-05-10T02:33:38;14.90;99.90
34698;DHT22;61391;50.922;6.928;2023-05-10T02:39:31;14.90;99.90
34698;DHT22;61391;50.922;6.928;2023-05-10T02:41:58;15.00;99.90
34698;DHT22;61391;50.922;6.928;2023-05-10T02:44:27;14.90;99.90
34698;DHT22;61391;50.922;6.928;2023-05-10T02:46:57;14.90;99.90
34698;DHT22;61391;50.922;6.928;2023-05-10T02:49:25;15.10;99.90
34698;DHT22;61391;50.922;6.928;2023-05-10T02:51:57;15.20;99.90
34698;DHT22;61391;50.922;6.928;2023-05-10T02:54:31;15.30;99.90
34698;DHT22;61391;50.922;6.928;2023-05-10T02:57:00;15.30;99.90
34698;DHT22;61391;50.922;6.928;2023-05-10T02:59:31;15.20;99.90
34698;DHT22;61391;50.922;6.928;2023-05-10T03:01:59;15.20;99.90
34698;DHT22;61391;50.922;6.928;2023-05-10T03:04:25;15.40;99.90
34698;DHT22;61391;50.922;6.928;2023-05-10T03:06:51;15.50;99.90
34698;DHT22;61391;50.922;6.928;2023-05-10T03:09:17;15.60;99.90
34698;DHT22;61391;50.922;6.928;2023-05-10T03:12:10;15.60;99.90
34698;DHT22;61391;50.922;6.928;2023-05-10T03:17:47;15.60;99.90
34698;DHT22;61391;50.922;6.928;2023-05-10T03:20:31;15.40;99.90
34698;DHT22;61391;50.922;6.928;2023-05-10T03:26:27;15.30;99.90
34698;DHT22;61391;50.922;6.928;2023-05-10T03:28:54;15.30;99.90
34698;DHT22;61391;50.922;6.928;2023-05-10T03:31:23;15.20;99.90
34698;DHT22;61391;50.922;6.928;2023-05-10T03:37:12;15.20;99.90
34698;DHT22;61391;50.922;6.928;2023-05-10T03:39:39;15.10;99.90
34698;DHT22;61391;50.922;6.928;2023-05-10T03:48:46;15.20;99.90
34698;DHT22;61391;50.922;6.928;2023-05-10T03:51:11;15.20;99.90
34698;DHT22;61391;50.922;6.928;2023-05-10T03:53:37;15.20;99.90
34698;DHT22;61391;50.922;6.928;2023-05-10T03:56:02;14.90;99.90
34698;DHT22;61391;50.922;6.928;2023-05-10T04:01:50;15.00;99.90
34698;DHT22;61391;50.922;6.928;2023-05-10T04:04:17;14.90;99.90
34698;DHT22;61391;50.922;6.928;2023-05-10T04:06:47;14.90;99.90
34698;DHT22;61391;50.922;6.928;2023-05-10T04:09:14;15.00;99.90
34698;DHT22;61391;50.922;6.928;2023-05-10T04:15:02;14.90;99.90
34698;DHT22;61391;50.922;6.928;2023-05-10T04:17:36;14.90;99.90
34698;DHT22;61391;50.922;6.928;2023-05-10T04:20:03;15.00;99.90
34698;DHT22;61391;50.922;6.928;2023-05-10T04:22:32;14.90;99.90
34698;DHT22;61391;50.922;6.928;2023-05-10T04:28:19;14.80;99.90
34698;DHT22;61391;50.922;6.928;2023-05-10T04:30:47;14.80;99.90
34698;DHT22;61391;50.922;6.928;2023-05-10T04:33:14;14.80;99.90
34698;DHT22;61391;50.922;6.928;2023-05-10T04:35:41;14.70;99.90
34698;DHT22;61391;50.922;6.928;2023-05-10T04:41:28;14.80;99.90
34698;DHT22;61391;50.922;6.928;2023-05-10T04:43:55;14.80;99.90
34698;DHT22;61391;50.922;6.928;2023-05-10T04:46:21;14.90;99.90
34698;DHT22;61391;50.922;6.928;2023-05-10T04:48:50;14.90;99.90
34698;DHT22;61391;50.922;6.928;2023-05-10T04:51:15;14.90;99.90
34698;DHT22;61391;50.922;6.928;2023-05-10T04:57:05;15.20;99.90
34698;DHT22;61391;50.922;6.928;2023-05-10T05:02:53;15.20;99.90
34698;DHT22;61391;50.922;6.928;2023-05-10T05:08:41;15.40;99.90
34698;DHT22;61391;50.922;6.928;2023-05-10T05:14:33;15.20;99.90
34698;DHT22;61391;50.922;6.928;2023-05-10T05:16:58;15.20;99.90
34698;DHT22;61391;50.922;6.928;2023-05-10T05:19:32;15.10;99.90
34698;DHT22;61391;50.922;6.928;2023-05-10T05:21:59;15.10;99.90
34698;DHT22;61391;50.922;6.928;2023-05-10T05:24:26;15.30;99.90
34698;DHT22;61391;50.922;6.928;2023-05-10T05:26:55;15.40;99.90
34698;DHT22;61391;50.922;6.928;2023-05-10T05:29:23;15.30;99.90
34698;DHT22;61391;50.922;6.928;2023-05-10T05:31:52;15.30;99.90
34698;DHT22;61391;50.922;6.928;2023-05-10T05:34:19;15.30;99.90
34698;DHT22;61391;50.922;6.928;2023-05-10T05:36:47;15.20;99.90
34698;DHT22;61391;50.922;6.928;2023-05-10T05:42:35;15.30;99.90
34698;DHT22;61391;50.922;6.928;2023-05-10T05:48:19;15.40;99.90
34698;DHT22;61391;50.922;6.928;2023-05-10T05:50:47;15.60;99.90
34698;DHT22;61391;50.922;6.928;2023-05-10T05:53:13;15.70;99.90
34698;DHT22;61391;50.922;6.928;2023-05-10T05:55:40;15.60;99.90
34698;DHT22;61391;50.922;6.928;2023-05-10T05:58:07;15.70;99.90
34698;DHT22;61391;50.922;6.928;2023-05-10T06:00:33;15.80;99.90
34698;DHT22;61391;50.922;6.928;2023-05-10T06:06:20;15.80;99.90
34698;DHT22;61391;50.922;6.928;2023-05-10T06:08:45;15.80;99.90
34698;DHT22;61391;50.922;6.928;2023-05-10T06:11:12;15.80;99.90
34698;DHT22;61391;50.922;6.928;2023-05-10T06:20:25;15.90;99.90
34698;DHT22;61391;50.922;6.928;2023-05-10T06:26:14;15.70;99.90
34698;DHT22;61391;50.922;6.928;2023-05-10T06:32:08;15.80;99.90
34698;DHT22;61391;50.922;6.928;2023-05-10T06:34:33;15.90;99.90
34698;DHT22;61391;50.922;6.928;2023-05-10T06:37:00;15.70;99.90
34698;DHT22;61391;50.922;6.928;2023-05-10T06:39:25;15.70;99.90
34698;DHT22;61391;50.922;6.928;2023-05-10T06:41:51;15.70;99.90
34698;DHT22;61391;50.922;6.928;2023-05-10T06:44:19;15.80;99.90
34698;DHT22;61391;50.922;6.928;2023-05-10T06:46:55;15.60;99.90
34698;DHT22;61391;50.922;6.928;2023-05-10T06:49:22;15.60;99.90
34698;DHT22;61391;50.922;6.928;2023-05-10T06:51:51;15.70;99.90
34698;DHT22;61391;50.922;6.928;2023-05-10T06:54:20;15.70;99.90
34698;DHT22;61391;50.922;6.928;2023-05-10T06:56:49;15.60;99.90
34698;DHT22;61391;50.922;6.928;2023-05-10T06:59:14;15.50;99.90
34698;DHT22;61391;50.922;6.928;2023-05-10T07:01:42;15.70;99.90
34698;DHT22;61391;50.922;6.928;2023-05-10T07:07:30;15.30;99.90
34698;DHT22;61391;50.922;6.928;2023-05-10T07:13:19;15.30;99.90
34698;DHT22;61391;50.922;6.928;2023-05-10T07:15:44;15.40;99.90
34698;DHT22;61391;50.922;6.928;2023-05-10T07:18:12;15.50;99.90
34698;DHT22;61391;50.922;6.928;2023-05-10T07:20:42;15.60;99.90
34698;DHT22;61391;50.922;6.928;2023-05-10T07:23:10;15.50;99.90
34698;DHT22;61391;50.922;6.928;2023-05-10T07:25:37;15.60;99.90
34698;DHT22;61391;50.922;6.928;2023-05-10T07:28:07;15.60;99.90
34698;DHT22;61391;50.922;6.928;2023-05-10T07:33:55;15.70;99.90
34698;DHT22;61391;50.922;6.928;2023-05-10T07:36:24;15.70;99.90
34698;DHT22;61391;50.922;6.928;2023-05-10T07:38:59;15.70;99.90
34698;DHT22;61391;50.922;6.928;2023-05-10T07:41:26;15.70;99.90
34698;DHT22;61391;50.922;6.928;2023-05-10T07:47:14;15.60;99.90
34698;DHT22;61391;50.922;6.928;2023-05-10T07:49:40;15.60;99.90
34698;DHT22;61391;50.922;6.928;2023-05-10T07:52:06;15.80;99.90
34698;DHT22;61391;50.922;6.928;2023-05-10T07:54:35;15.90;99.90
34698;DHT22;61391;50.922;6.928;2023-05-10T07:57:01;16.00;99.90
34698;DHT22;61391;50.922;6.928;2023-05-10T07:59:29;16.20;99.90
34698;DHT22;61391;50.922;6.928;2023-05-10T08:02:01;16.20;99.90
34698;DHT22;61391;50.922;6.928;2023-05-10T08:04:28;16.20;99.90
34698;DHT22;61391;50.922;6.928;2023-05-10T08:06:55;16.00;99.90
34698;DHT22;61391;50.922;6.928;2023-05-10T08:09:22;16.20;99.90
34698;DHT22;61391;50.922;6.928;2023-05-10T08:11:49;16.30;99.90
34698;DHT22;61391;50.922;6.928;2023-05-10T08:14:21;16.30;99.90
34698;DHT22;61391;50.922;6.928;2023-05-10T08:16:54;16.50;99.90
34698;DHT22;61391;50.922;6.928;2023-05-10T08:22:41;16.70;99.90
34698;DHT22;61391;50.922;6.928;2023-05-10T08:25:08;17.00;99.90
34698;DHT22;61391;50.922;6.928;2023-05-10T08:27:33;17.10;99.90
34698;DHT22;61391;50.922;6.928;2023-05-10T08:30:00;17.20;99.90
34698;DHT22;61391;50.922;6.928;2023-05-10T08:32:26;17.20;99.90
34698;DHT22;61391;50.922;6.928;2023-05-10T08:34:51;17.30;99.90
34698;DHT22;61391;50.922;6.928;2023-05-10T08:37:19;17.40;99.90
34698;DHT22;61391;50.922;6.928;2023-05-10T08:39:45;17.30;99.90
34698;DHT22;61391;50.922;6.928;2023-05-10T08:42:16;16.90;99.90
34698;DHT22;61391;50.922;6.928;2023-05-10T08:44:51;16.60;99.90
34698;DHT22;61391;50.922;6.928;2023-05-10T08:50:48;16.40;99.90
34698;DHT22;61391;50.922;6.928;2023-05-10T08:53:19;16.50;99.90
34698;DHT22;61391;50.922;6.928;2023-05-10T08:55:55;16.60;99.90
34698;DHT22;61391;50.922;6.928;2023-05-10T08:58:21;16.80;99.90
34698;DHT22;61391;50.922;6.928;2023-05-10T09:00:49;16.80;99.90
34698;DHT22;61391;50.922;6.928;2023-05-10T09:06:39;16.80;99.90
34698;DHT22;61391;50.922;6.928;2023-05-10T09:12:28;16.90;99.90
34698;DHT22;61391;50.922;6.928;2023-05-10T09:14:54;17.40;99.90
34698;DHT22;61391;50.922;6.928;2023-05-10T09:20:44;17.90;99.90
34698;DHT22;61391;50.922;6.928;2023-05-10T09:26:32;17.90;99.90
34698;DHT22;61391;50.922;6.928;2023-05-10T09:32:20;18.80;99.90
34698;DHT22;61391;50.922;6.928;2023-05-10T09:34:49;19.10;99.90
34698;DHT22;61391;50.922;6.928;2023-05-10T09:37:29;19.50;99.90
34698;DHT22;61391;50.922;6.928;2023-05-10T09:39:59;19.60;99.90
34698;DHT22;61391;50.922;6.928;2023-05-10T09:42:24;19.10;99.90
34698;DHT22;61391;50.922;6.928;2023-05-10T09:48:25;18.00;99.90
34698;DHT22;61391;50.922;6.928;2023-05-10T09:50:56;17.20;99.90
34698;DHT22;61391;50.922;6.928;2023-05-10T09:56:40;16.80;99.90
34698;DHT22;61391;50.922;6.928;2023-05-10T09:59:15;16.70;99.90
34698;DHT22;61391;50.922;6.928;2023-05-10T10:01:42;16.90;99.90
34698;DHT22;61391;50.922;6.928;2023-05-10T10:04:19;17.40;99.90
34698;DHT22;61391;50.922;6.928;2023-05-10T10:06:45;18.20;99.90
34698;DHT22;61391;50.922;6.928;2023-05-10T10:12:34;20.60;99.90
34698;DHT22;61391;50.922;6.928;2023-05-10T10:15:03;21.90;99.90
34698;DHT22;61391;50.922;6.928;2023-05-10T10:17:33;22.20;99.90
34698;DHT22;61391;50.922;6.928;2023-05-10T10:20:04;22.20;99.90
34698;DHT22;61391;50.922;6.928;2023-05-10T10:22:36;22.10;99.90
34698;DHT22;61391;50.922;6.928;2023-05-10T10:37:47;26.40;99.90
34698;DHT22;61391;50.922;6.928;2023-05-10T10:40:30;26.40;99.90
34698;DHT22;61391;50.922;6.928;2023-05-10T10:42:58;25.20;99.90
34698;DHT22;61391;50.922;6.928;2023-05-10T10:45:45;24.00;99.90
34698;DHT22;61391;50.922;6.928;2023-05-10T10:48:22;22.80;99.90
34698;DHT22;61391;50.922;6.928;2023-05-10T10:51:01;21.80;99.90
34698;DHT22;61391;50.922;6.928;2023-05-10T10:53:30;21.70;99.90
34698;DHT22;61391;50.922;6.928;2023-05-10T10:59:29;22.40;99.90
34698;DHT22;61391;50.922;6.928;2023-05-10T11:01:57;22.10;99.90
34698;DHT22;61391;50.922;6.928;2023-05-10T11:07:55;21.90;99.90
34698;DHT22;61391;50.922;6.928;2023-05-10T11:10:24;22.10;99.90
34698;DHT22;61391;50.922;6.928;2023-05-10T11:13:04;22.20;99.90
34698;DHT22;61391;50.922;6.928;2023-05-10T11:15:39;22.20;99.90
34698;DHT22;61391;50.922;6.928;2023-05-10T11:18:28;22.00;99.90
34698;DHT22;61391;50.922;6.928;2023-05-10T11:21:04;21.30;99.90
34698;DHT22;61391;50.922;6.928;2023-05-10T11:26:57;20.40;99.90
34698;DHT22;61391;50.922;6.928;2023-05-10T11:29:30;20.20;99.90
34698;DHT22;61391;50.922;6.928;2023-05-10T11:32:02;20.10;99.90
34698;DHT22;61391;50.922;6.928;2023-05-10T11:34:33;19.90;99.90
34698;DHT22;61391;50.922;6.928;2023-05-10T11:36:59;19.60;99.90
34698;DHT22;61391;50.922;6.928;2023-05-10T11:39:30;19.40;99.90
34698;DHT22;61391;50.922;6.928;2023-05-10T11:41:58;19.30;99.90
34698;DHT22;61391;50.922;6.928;2023-05-10T11:44:33;19.10;99.90
34698;DHT22;61391;50.922;6.928;2023-05-10T11:47:03;18.90;99.90
34698;DHT22;61391;50.922;6.928;2023-05-10T11:49:29;18.60;99.90
34698;DHT22;61391;50.922;6.928;2023-05-10T11:52:05;18.40;99.90
34698;DHT22;61391;50.922;6.928;2023-05-10T11:54:32;18.40;99.90
34698;DHT22;61391;50.922;6.928;2023-05-10T11:57:00;18.90;99.90
34698;DHT22;61391;50.922;6.928;2023-05-10T11:59:30;19.30;99.90
34698;DHT22;61391;50.922;6.928;2023-05-10T12:01:56;19.60;99.90
34698;DHT22;61391;50.922;6.928;2023-05-10T12:04:23;19.90;99.90
34698;DHT22;61391;50.922;6.928;2023-05-10T12:10:15;20.40;99.90
34698;DHT22;61391;50.922;6.928;2023-05-10T12:12:47;20.60;99.90
34698;DHT22;61391;50.922;6.928;2023-05-10T12:15:19;20.80;99.90
34698;DHT22;61391;50.922;6.928;2023-05-10T12:18:22;20.70;99.90
34698;DHT22;61391;50.922;6.928;2023-05-10T12:21:03;20.80;99.90
34698;DHT22;61391;50.922;6.928;2023-05-10T12:23:30;21.10;99.90
34698;DHT22;61391;50.922;6.928;2023-05-10T12:26:03;21.10;99.90
34698;DHT22;61391;50.922;6.928;2023-05-10T12:29:11;21.10;99.90
34698;DHT22;61391;50.922;6.928;2023-05-10T12:31:57;21.20;99.90
34698;DHT22;61391;50.922;6.928;2023-05-10T12:34:33;21.20;99.90
34698;DHT22;61391;50.922;6.928;2023-05-10T12:40:22;20.90;99.90
34698;DHT22;61391;50.922;6.928;2023-05-10T12:43:13;21.20;99.90
34698;DHT22;61391;50.922;6.928;2023-05-10T12:45:45;21.50;99.90
34698;DHT22;61391;50.922;6.928;2023-05-10T12:48:19;21.60;99.90
34698;DHT22;61391;50.922;6.928;2023-05-10T12:54:11;22.20;99.90
34698;DHT22;61391;50.922;6.928;2023-05-10T13:00:02;22.20;99.90
34698;DHT22;61391;50.922;6.928;2023-05-10T13:02:27;22.30;99.90
34698;DHT22;61391;50.922;6.928;2023-05-10T13:08:21;21.80;99.90
34698;DHT22;61391;50.922;6.928;2023-05-10T13:10:55;21.90;99.90
34698;DHT22;61391;50.922;6.928;2023-05-10T13:13:31;21.70;99.90
34698;DHT22;61391;50.922;6.928;2023-05-10T13:19:23;21.30;99.90
34698;DHT22;61391;50.922;6.928;2023-05-10T13:21:49;21.10;99.90
34698;DHT22;61391;50.922;6.928;2023-05-10T13:24:20;20.80;99.90
34698;DHT22;61391;50.922;6.928;2023-05-10T13:26:47;20.60;99.90
34698;DHT22;61391;50.922;6.928;2023-05-10T13:32:36;20.70;99.90
34698;DHT22;61391;50.922;6.928;2023-05-10T13:35:02;20.90;99.90
34698;DHT22;61391;50.922;6.928;2023-05-10T13:40:51;21.10;99.90
34698;DHT22;61391;50.922;6.928;2023-05-10T13:43:19;21.40;99.90
34698;DHT22;61391;50.922;6.928;2023-05-10T13:49:13;21.30;99.90
34698;DHT22;61391;50.922;6.928;2023-05-10T13:51:39;21.50;99.90
34698;DHT22;61391;50.922;6.928;2023-05-10T13:54:09;21.70;99.90
34698;DHT22;61391;50.922;6.928;2023-05-10T13:56:41;21.80;99.90
34698;DHT22;61391;50.922;6.928;2023-05-10T13:59:12;21.30;99.90
34698;DHT22;61391;50.922;6.928;2023-05-10T14:01:42;20.90;99.90
34698;DHT22;61391;50.922;6.928;2023-05-10T14:07:32;21.40;99.90
34698;DHT22;61391;50.922;6.928;2023-05-10T14:10:01;21.20;99.90
34698;DHT22;61391;50.922;6.928;2023-05-10T14:12:33;21.10;99.90
34698;DHT22;61391;50.922;6.928;2023-05-10T14:14:59;21.30;99.90
34698;DHT22;61391;50.922;6.928;2023-05-10T14:17:31;21.70;99.90
34698;DHT22;61391;50.922;6.928;2023-05-10T14:19:58;21.80;99.90
34698;DHT22;61391;50.922;6.928;2023-05-10T14:22:26;21.70;99.90
34698;DHT22;61391;50.922;6.928;2023-05-10T14:24:56;21.90;99.90
34698;DHT22;61391;50.922;6.928;2023-05-10T14:27:34;21.90;99.90
34698;DHT22;61391;50.922;6.928;2023-05-10T14:30:02;21.80;99.90
34698;DHT22;61391;50.922;6.928;2023-05-10T14:32:33;21.80;99.90
34698;DHT22;61391;50.922;6.928;2023-05-10T14:35:04;21.70;99.90
34698;DHT22;61391;50.922;6.928;2023-05-10T14:37:40;21.70;99.90
34698;DHT22;61391;50.922;6.928;2023-05-10T14:40:12;21.70;99.90
34698;DHT22;61391;50.922;6.928;2023-05-10T14:42:42;21.80;99.90
34698;DHT22;61391;50.922;6.928;2023-05-10T14:45:10;21.80;99.90
34698;DHT22;61391;50.922;6.928;2023-05-10T14:47:52;21.80;99.90
34698;DHT22;61391;50.922;6.928;2023-05-10T14:50:19;21.80;99.90
34698;DHT22;61391;50.922;6.928;2023-05-10T14:52:48;22.00;99.90
34698;DHT22;61391;50.922;6.928;2023-05-10T14:55:14;21.70;99.90
34698;DHT22;61391;50.922;6.928;2023-05-10T14:57:45;21.80;99.90
34698;DHT22;61391;50.922;6.928;2023-05-10T15:00:13;21.70;99.90
34698;DHT22;61391;50.922;6.928;2023-05-10T15:02:41;21.60;99.90
34698;DHT22;61391;50.922;6.928;2023-05-10T15:05:10;21.60;99.90
34698;DHT22;61391;50.922;6.928;2023-05-10T15:11:03;21.70;99.90
34698;DHT22;61391;50.922;6.928;2023-05-10T15:13:28;21.40;99.90
34698;DHT22;61391;50.922;6.928;2023-05-10T15:15:54;21.30;99.90
34698;DHT22;61391;50.922;6.928;2023-05-10T15:18:24;21.10;99.90
34698;DHT22;61391;50.922;6.928;2023-05-10T15:20:59;20.90;99.90
34698;DHT22;61391;50.922;6.928;2023-05-10T15:23:27;20.60;99.90
34698;DHT22;61391;50.922;6.928;2023-05-10T15:25:55;20.60;99.90
34698;DHT22;61391;50.922;6.928;2023-05-10T15:28:23;20.60;99.90
34698;DHT22;61391;50.922;6.928;2023-05-10T15:30:49;20.70;99.90
34698;DHT22;61391;50.922;6.928;2023-05-10T15:33:17;20.90;99.90
34698;DHT22;61391;50.922;6.928;2023-05-10T15:35:47;20.80;99.90
34698;DHT22;61391;50.922;6.928;2023-05-10T15:38:23;20.90;99.90
34698;DHT22;61391;50.922;6.928;2023-05-10T15:40:56;21.10;99.90
34698;DHT22;61391;50.922;6.928;2023-05-10T15:43:25;21.00;99.90
34698;DHT22;61391;50.922;6.928;2023-05-10T15:49:20;21.20;99.90
34698;DHT22;61391;50.922;6.928;2023-05-10T15:52:03;20.90;99.90
34698;DHT22;61391;50.922;6.928;2023-05-10T15:54:30;20.90;99.90
34698;DHT22;61391;50.922;6.928;2023-05-10T15:56:59;21.20;99.90
34698;DHT22;61391;50.922;6.928;2023-05-10T15:59:26;21.10;99.90
34698;DHT22;61391;50.922;6.928;2023-05-10T16:05:19;21.10;99.90
34698;DHT22;61391;50.922;6.928;2023-05-10T16:07:50;20.90;99.90
34698;DHT22;61391;50.922;6.928;2023-05-10T16:13:48;20.40;99.90
34698;DHT22;61391;50.922;6.928;2023-05-10T16:19:39;20.60;99.90
34698;DHT22;61391;50.922;6.928;2023-05-10T16:25:35;20.20;99.90
34698;DHT22;61391;50.922;6.928;2023-05-10T16:28:02;20.10;99.90
34698;DHT22;61391;50.922;6.928;2023-05-10T16:33:54;19.70;99.90
34698;DHT22;61391;50.922;6.928;2023-05-10T16:36:20;19.70;99.90
34698;DHT22;61391;50.922;6.928;2023-05-10T16:38:46;19.80;99.90
34698;DHT22;61391;50.922;6.928;2023-05-10T16:41:13;20.00;99.90
34698;DHT22;61391;50.922;6.928;2023-05-10T16:43:45;20.10;99.90
34698;DHT22;61391;50.922;6.928;2023-05-10T16:46:11;20.00;99.90
34698;DHT22;61391;50.922;6.928;2023-05-10T16:48:38;19.90;99.90
34698;DHT22;61391;50.922;6.928;2023-05-10T16:54:29;19.40;99.90
34698;DHT22;61391;50.922;6.928;2023-05-10T16:56:54;19.50;99.90
34698;DHT22;61391;50.922;6.928;2023-05-10T16:59:23;19.40;99.90
34698;DHT22;61391;50.922;6.928;2023-05-10T17:01:54;19.60;99.90
34698;DHT22;61391;50.922;6.928;2023-05-10T17:07:43;19.40;99.90
34698;DHT22;61391;50.922;6.928;2023-05-10T17:10:09;19.30;99.90
34698;DHT22;61391;50.922;6.928;2023-05-10T17:12:39;19.20;99.90
34698;DHT22;61391;50.922;6.928;2023-05-10T17:15:08;19.20;99.90
34698;DHT22;61391;50.922;6.928;2023-05-10T17:17:33;19.00;99.90
34698;DHT22;61391;50.922;6.928;2023-05-10T17:19:59;19.10;99.90
34698;DHT22;61391;50.922;6.928;2023-05-10T17:22:27;18.90;99.90
34698;DHT22;61391;50.922;6.928;2023-05-10T17:28:19;19.00;99.90
34698;DHT22;61391;50.922;6.928;2023-05-10T17:30:47;18.80;99.90
34698;DHT22;61391;50.922;6.928;2023-05-10T17:33:21;18.50;99.90
34698;DHT22;61391;50.922;6.928;2023-05-10T17:35:52;18.60;99.90
34698;DHT22;61391;50.922;6.928;2023-05-10T17:38:18;18.80;99.90
34698;DHT22;61391;50.922;6.928;2023-05-10T17:44:06;18.70;99.90
34698;DHT22;61391;50.922;6.928;2023-05-10T17:46:34;18.70;99.90
34698;DHT22;61391;50.922;6.928;2023-05-10T17:49:00;18.70;99.90
34698;DHT22;61391;50.922;6.928;2023-05-10T17:51:25;18.80;99.90
34698;DHT22;61391;50.922;6.928;2023-05-10T17:53:51;18.80;99.90
34698;DHT22;61391;50.922;6.928;2023-05-10T17:56:18;18.80;99.90
34698;DHT22;61391;50.922;6.928;2023-05-10T17:58:45;18.90;99.90
34698;DHT22;61391;50.922;6.928;2023-05-10T18:04:34;18.70;99.90
34698;DHT22;61391;50.922;6.928;2023-05-10T18:07:00;18.90;99.90
34698;DHT22;61391;50.922;6.928;2023-05-10T18:09:27;18.90;99.90
34698;DHT22;61391;50.922;6.928;2023-05-10T18:11:58;18.90;99.90
34698;DHT22;61391;50.922;6.928;2023-05-10T18:14:35;18.90;99.90
34698;DHT22;61391;50.922;6.928;2023-05-10T18:17:02;19.00;99.90
34698;DHT22;61391;50.922;6.928;2023-05-10T18:19:28;19.00;99.90
34698;DHT22;61391;50.922;6.928;2023-05-10T18:21:55;18.90;99.90
34698;DHT22;61391;50.922;6.928;2023-05-10T18:24:22;19.00;99.90
34698;DHT22;61391;50.922;6.928;2023-05-10T18:26:48;19.00;99.90
34698;DHT22;61391;50.922;6.928;2023-05-10T18:32:36;19.00;99.90
34698;DHT22;61391;50.922;6.928;2023-05-10T18:35:02;18.80;99.90
34698;DHT22;61391;50.922;6.928;2023-05-10T18:40:51;18.30;99.90
34698;DHT22;61391;50.922;6.928;2023-05-10T18:43:18;18.20;99.90
34698;DHT22;61391;50.922;6.928;2023-05-10T18:49:05;17.80;99.90
34698;DHT22;61391;50.922;6.928;2023-05-10T18:54:54;17.70;99.90
34698;DHT22;61391;50.922;6.928;2023-05-10T18:57:20;17.70;99.90
34698;DHT22;61391;50.922;6.928;2023-05-10T18:59:47;17.60;99.90
34698;DHT22;61391;50.922;6.928;2023-05-10T19:02:13;17.60;99.90
34698;DHT22;61391;50.922;6.928;2023-05-10T19:04:40;17.50;99.90
34698;DHT22;61391;50.922;6.928;2023-05-10T19:07:07;17.50;99.90
34698;DHT22;61391;50.922;6.928;2023-05-10T19:09:32;17.50;99.90
34698;DHT22;61391;50.922;6.928;2023-05-10T19:11:58;17.50;99.90
34698;DHT22;61391;50.922;6.928;2023-05-10T19:14:24;17.50;99.90
34698;DHT22;61391;50.922;6.928;2023-05-10T19:16:51;17.50;99.90
34698;DHT22;61391;50.922;6.928;2023-05-10T19:19:16;17.40;99.90
34698;DHT22;61391;50.922;6.928;2023-05-10T19:21:42;17.40;99.90
34698;DHT22;61391;50.922;6.928;2023-05-10T19:24:08;17.30;99.90
34698;DHT22;61391;50.922;6.928;2023-05-10T19:26:34;17.40;99.90
34698;DHT22;61391;50.922;6.928;2023-05-10T19:29:01;17.40;99.90
34698;DHT22;61391;50.922;6.928;2023-05-10T19:31:28;17.30;99.90
34698;DHT22;61391;50.922;6.928;2023-05-10T19:34:13;17.30;99.90
34698;DHT22;61391;50.922;6.928;2023-05-10T19:36:41;17.40;99.90
34698;DHT22;61391;50.922;6.928;2023-05-10T19:39:06;17.30;99.90
34698;DHT22;61391;50.922;6.928;2023-05-10T19:41:32;17.20;99.90
34698;DHT22;61391;50.922;6.928;2023-05-10T19:47:19;17.10;99.90
34698;DHT22;61391;50.922;6.928;2023-05-10T19:49:45;16.80;99.90
34698;DHT22;61391;50.922;6.928;2023-05-10T19:52:12;16.50;99.90
34698;DHT22;61391;50.922;6.928;2023-05-10T19:54:38;16.10;99.90
34698;DHT22;61391;50.922;6.928;2023-05-10T20:00:27;15.80;99.90
34698;DHT22;61391;50.922;6.928;2023-05-10T20:02:54;15.90;99.90
34698;DHT22;61391;50.922;6.928;2023-05-10T20:05:33;15.90;99.90
34698;DHT22;61391;50.922;6.928;2023-05-10T20:07:59;16.10;99.90
34698;DHT22;61391;50.922;6.928;2023-05-10T20:10:25;16.30;99.90
34698;DHT22;61391;50.922;6.928;2023-05-10T20:12:53;16.10;99.90
34698;DHT22;61391;50.922;6.928;2023-05-10T20:18:42;16.20;99.90
34698;DHT22;61391;50.922;6.928;2023-05-10T20:21:10;16.30;99.90
34698;DHT22;61391;50.922;6.928;2023-05-10T20:23:36;16.10;99.90
34698;DHT22;61391;50.922;6.928;2023-05-10T20:26:01;16.10;99.90
34698;DHT22;61391;50.922;6.928;2023-05-10T20:28:33;16.10;99.90
34698;DHT22;61391;50.922;6.928;2023-05-10T20:34:24;16.50;99.90